Time;durP1;ratioP1;P1;durP2;ratioP2;P2;SDS_P1;SDS_P2;PMS_P1;PMS_P2;Temp;Humidity;BMP_temperature;BMP_pressure;BME280_temperature;BME280_humidity;BME280_pressure;Samples;Min_cycle;Max_cycle;Signal;HPM_P1;HPM_P2
2022/08/26 00:02:03;;;;;;;11.73;8.50;;;20.00;99.90;;;;;;5051262;28;20266;-71
2022/08/26 00:04:30;;;;;;;13.50;7.87;;;20.00;99.90;;;;;;5049246;28;20973;-71
2022/08/26 00:06:56;;;;;;;8.80;7.77;;;19.90;99.90;;;;;;5050768;28;20172;-70
2022/08/26 00:09:23;;;;;;;11.27;7.70;;;19.90;99.90;;;;;;5050805;28;21516;-71
2022/08/26 00:11:49;;;;;;;9.83;8.20;;;19.80;99.90;;;;;;5050929;28;20562;-71
2022/08/26 00:14:15;;;;;;;12.83;7.27;;;19.70;99.90;;;;;;5050771;28;20421;-71
2022/08/26 00:16:41;;;;;;;11.90;8.03;;;19.70;99.90;;;;;;5050820;28;20179;-71
2022/08/26 00:19:07;;;;;;;14.50;8.77;;;19.70;99.90;;;;;;5050928;28;20414;-71
2022/08/26 00:21:33;;;;;;;10.73;8.67;;;19.60;99.90;;;;;;5051140;28;20505;-71
2022/08/26 00:23:58;;;;;;;15.27;9.87;;;19.60;99.90;;;;;;5051013;28;20514;-71
2022/08/26 00:26:24;;;;;;;12.23;8.93;;;19.60;99.90;;;;;;5050843;28;20563;-71
2022/08/26 00:28:50;;;;;;;14.37;8.77;;;19.40;99.90;;;;;;5050654;28;20376;-71
2022/08/26 00:31:15;;;;;;;17.13;8.90;;;19.40;99.90;;;;;;5050405;28;20224;-71
2022/08/26 00:33:41;;;;;;;13.50;8.57;;;19.40;99.90;;;;;;5049155;28;20180;-71
2022/08/26 00:36:08;;;;;;;12.93;7.93;;;19.40;99.90;;;;;;5050472;28;20182;-71
2022/08/26 00:38:35;;;;;;;10.83;8.40;;;19.40;99.90;;;;;;5048920;28;20414;-71
2022/08/26 00:41:01;;;;;;;11.53;8.43;;;19.30;99.90;;;;;;5050237;28;20434;-71
2022/08/26 00:43:31;;;;;;;9.70;8.30;;;19.30;99.90;;;;;;5050343;28;20438;-71
2022/08/26 00:46:02;;;;;;;17.80;9.63;;;19.20;99.90;;;;;;5050355;28;20184;-71
2022/08/26 00:48:31;;;;;;;21.30;9.43;;;19.20;99.90;;;;;;5050042;28;20535;-71
2022/08/26 00:51:24;;;;;;;17.83;7.83;;;19.20;99.90;;;;;;5050100;28;20513;-71
2022/08/26 00:53:55;;;;;;;11.73;8.30;;;19.10;99.90;;;;;;5048259;28;20457;-71
2022/08/26 00:56:36;;;;;;;16.97;9.57;;;19.10;99.90;;;;;;5049805;28;20428;-71
2022/08/26 00:59:06;;;;;;;12.07;8.73;;;19.00;99.90;;;;;;5049969;28;20430;-71
2022/08/26 01:01:32;;;;;;;15.60;9.17;;;19.00;99.90;;;;;;5049911;28;20420;-71
2022/08/26 01:03:58;;;;;;;13.43;9.10;;;19.00;99.90;;;;;;5049729;28;20415;-71
2022/08/26 01:06:26;;;;;;;12.40;8.30;;;19.00;99.90;;;;;;5049736;28;20420;-71
2022/08/26 01:08:52;;;;;;;11.40;8.43;;;19.00;99.90;;;;;;5049687;28;20922;-71
2022/08/26 01:11:18;;;;;;;14.50;10.03;;;19.00;99.90;;;;;;5048699;28;20434;-72
2022/08/26 01:13:46;;;;;;;16.83;9.47;;;19.00;99.90;;;;;;5050377;28;20505;-71
2022/08/26 01:16:13;;;;;;;12.70;9.27;;;18.90;99.90;;;;;;5048115;28;20638;-71
2022/08/26 01:18:42;;;;;;;13.37;9.43;;;18.90;99.90;;;;;;5049705;28;20418;-71
2022/08/26 01:21:48;;;;;;;10.67;8.60;;;18.90;99.90;;;;;;5049650;28;20464;-71
2022/08/26 01:24:15;;;;;;;10.60;8.23;;;18.90;99.90;;;;;;5007378;28;20458;-71
2022/08/26 01:26:43;;;;;;;11.43;8.77;;;18.80;99.90;;;;;;5007567;28;20448;-71
2022/08/26 01:29:16;;;;;;;13.77;9.47;;;18.80;99.90;;;;;;5028637;28;20496;-71
2022/08/26 01:31:45;;;;;;;14.20;9.07;;;18.80;99.90;;;;;;5048458;28;20426;-71
2022/08/26 01:34:22;;;;;;;16.40;8.57;;;18.80;99.90;;;;;;5050131;28;20900;-70
2022/08/26 01:36:50;;;;;;;12.90;8.30;;;18.80;99.90;;;;;;5048474;28;21238;-71
2022/08/26 01:39:16;;;;;;;18.53;9.77;;;18.70;99.90;;;;;;5049909;28;20418;-71
2022/08/26 01:41:43;;;;;;;13.93;8.17;;;18.70;99.90;;;;;;5050024;28;20969;-71
2022/08/26 01:44:14;;;;;;;9.40;8.40;;;18.70;99.90;;;;;;5049887;28;20424;-71
2022/08/26 01:46:41;;;;;;;15.43;8.00;;;18.60;99.90;;;;;;5048376;28;20821;-71
2022/08/26 01:49:08;;;;;;;10.83;8.30;;;18.60;99.90;;;;;;5049793;28;20466;-71
2022/08/26 01:51:37;;;;;;;11.30;7.83;;;18.60;99.90;;;;;;5049829;28;20425;-71
2022/08/26 01:54:05;;;;;;;13.30;8.53;;;18.60;99.90;;;;;;5049739;28;20446;-71
2022/08/26 01:56:31;;;;;;;10.10;8.20;;;18.60;99.90;;;;;;5049605;28;20418;-71
2022/08/26 01:58:59;;;;;;;11.70;8.70;;;18.50;99.90;;;;;;5049585;28;20425;-70
2022/08/26 02:01:26;;;;;;;9.67;8.00;;;18.50;99.90;;;;;;5049386;28;20895;-71
2022/08/26 02:04:05;;;;;;;14.30;8.30;;;18.40;99.90;;;;;;5049481;28;20920;-71
2022/08/26 02:06:31;;;;;;;11.70;8.67;;;18.50;99.90;;;;;;5049326;28;20417;-71
2022/08/26 02:09:00;;;;;;;12.57;8.57;;;18.40;99.90;;;;;;5049349;28;20462;-71
2022/08/26 02:11:26;;;;;;;13.70;9.57;;;18.30;99.90;;;;;;5049375;28;20438;-71
2022/08/26 02:13:56;;;;;;;14.63;8.47;;;18.30;99.90;;;;;;5049334;28;20418;-71
2022/08/26 02:16:25;;;;;;;12.47;9.17;;;18.20;99.90;;;;;;5049449;28;20257;-71
2022/08/26 02:18:52;;;;;;;11.60;8.30;;;18.00;99.90;;;;;;5049157;28;20947;-71
2022/08/26 02:21:18;;;;;;;12.00;7.97;;;18.00;99.90;;;;;;5049022;28;20904;-71
2022/08/26 02:23:44;;;;;;;12.83;8.60;;;18.00;99.90;;;;;;5047758;28;20420;-71
2022/08/26 02:26:13;;;;;;;15.13;7.97;;;18.10;99.90;;;;;;5047549;28;20176;-71
2022/08/26 02:28:50;;;;;;;14.50;8.13;;;18.10;99.90;;;;;;5046041;28;20222;-71
2022/08/26 02:31:16;;;;;;;14.10;8.63;;;18.10;99.90;;;;;;5048351;28;20438;-71
2022/08/26 02:33:42;;;;;;;10.87;7.67;;;18.10;99.90;;;;;;5048444;28;20424;-71
2022/08/26 02:36:07;;;;;;;13.70;8.70;;;18.10;99.90;;;;;;5046982;28;20180;-71
2022/08/26 02:38:34;;;;;;;12.60;9.10;;;18.00;99.90;;;;;;5048284;28;20240;-70
2022/08/26 02:41:00;;;;;;;11.23;8.30;;;17.90;99.90;;;;;;5048212;28;20203;-71
2022/08/26 02:43:26;;;;;;;11.77;7.93;;;17.90;99.90;;;;;;5046641;28;20804;-71
2022/08/26 02:45:52;;;;;;;11.23;8.40;;;17.90;99.90;;;;;;5048033;28;20210;-71
2022/08/26 02:48:20;;;;;;;11.40;8.37;;;17.90;99.90;;;;;;5048108;28;20221;-71
2022/08/26 02:50:46;;;;;;;13.40;8.03;;;17.90;99.90;;;;;;5046495;28;20203;-71
2022/08/26 02:53:13;;;;;;;9.03;8.00;;;17.90;99.90;;;;;;5048360;28;20424;-71
2022/08/26 02:55:40;;;;;;;11.53;7.50;;;17.80;99.90;;;;;;5048161;28;20416;-72
2022/08/26 02:58:07;;;;;;;11.43;7.90;;;17.90;99.90;;;;;;5048038;28;20913;-71
2022/08/26 03:00:35;;;;;;;8.93;7.27;;;17.90;99.90;;;;;;5046353;28;20444;-71
2022/08/26 03:03:01;;;;;;;10.83;7.90;;;17.90;99.90;;;;;;5048119;28;20928;-71
2022/08/26 03:05:27;;;;;;;13.57;7.63;;;17.90;99.90;;;;;;5048032;28;20508;-71
2022/08/26 03:07:52;;;;;;;15.00;8.00;;;17.80;99.90;;;;;;5047990;28;20265;-71
2022/08/26 03:10:18;;;;;;;8.67;7.23;;;17.70;99.90;;;;;;5047842;28;20688;-71
2022/08/26 03:12:44;;;;;;;18.13;10.00;;;17.60;99.90;;;;;;5048367;28;20647;-71
2022/08/26 03:15:11;;;;;;;12.60;7.20;;;17.70;99.90;;;;;;5047864;28;20457;-71
2022/08/26 03:17:37;;;;;;;15.47;8.00;;;17.70;99.90;;;;;;5047822;28;20281;-71
2022/08/26 03:20:08;;;;;;;9.53;8.17;;;17.70;99.90;;;;;;5047727;28;20507;-71
2022/08/26 03:22:34;;;;;;;16.53;8.47;;;17.80;99.90;;;;;;5047884;28;20429;-71
2022/08/26 03:25:00;;;;;;;15.93;8.63;;;17.80;99.90;;;;;;5047753;28;20442;-71
2022/08/26 03:27:26;;;;;;;14.63;9.37;;;17.70;99.90;;;;;;5047897;28;21068;-71
2022/08/26 03:32:36;;;;;;;15.00;8.47;;;17.70;99.90;;;;;;5046654;28;20299;-71
2022/08/26 03:35:02;;;;;;;11.57;7.70;;;17.60;99.90;;;;;;5047654;28;20449;-71
2022/08/26 03:37:27;;;;;;;11.70;8.10;;;17.60;99.90;;;;;;5047604;28;20333;-71
2022/08/26 03:39:53;;;;;;;9.70;7.67;;;17.50;99.90;;;;;;5050103;28;20556;-71
2022/08/26 03:42:19;;;;;;;9.50;7.57;;;17.50;99.90;;;;;;5051483;28;20191;-71
2022/08/26 03:44:44;;;;;;;12.37;7.90;;;17.60;99.90;;;;;;5051318;28;20195;-71
2022/08/26 03:47:10;;;;;;;9.40;7.13;;;17.60;99.90;;;;;;5051221;28;20191;-71
2022/08/26 03:49:36;;;;;;;11.73;7.47;;;17.50;99.90;;;;;;5051211;28;20217;-71
2022/08/26 03:52:02;;;;;;;11.93;8.27;;;17.50;99.90;;;;;;5049938;28;20185;-71
2022/08/26 03:54:28;;;;;;;8.53;6.87;;;17.50;99.90;;;;;;5051685;28;20288;-72
2022/08/26 03:56:53;;;;;;;11.00;8.17;;;17.50;99.90;;;;;;5051716;28;20451;-72
2022/08/26 03:59:19;;;;;;;17.63;9.03;;;17.50;99.90;;;;;;5051602;28;20189;-72
2022/08/26 04:01:45;;;;;;;9.90;8.40;;;17.50;99.90;;;;;;5033093;28;20185;-71
2022/08/26 04:04:10;;;;;;;10.90;7.97;;;17.50;99.90;;;;;;5032876;28;20190;-71
2022/08/26 04:06:38;;;;;;;10.03;7.60;;;17.40;99.90;;;;;;5050425;28;20198;-71
2022/08/26 04:11:38;;;;;;;10.43;8.30;;;17.30;99.90;;;;;;5029092;28;20568;-74
2022/08/26 04:14:07;;;;;;;10.07;7.73;;;17.20;99.90;;;;;;5031017;28;20452;-73
2022/08/26 04:16:34;;;;;;;17.10;7.90;;;17.00;99.90;;;;;;5031008;28;20423;-73
2022/08/26 04:18:59;;;;;;;9.20;7.23;;;16.90;99.90;;;;;;5030927;28;20416;-73
2022/08/26 04:21:26;;;;;;;12.43;8.30;;;17.00;99.90;;;;;;5030924;28;20413;-72
2022/08/26 04:23:52;;;;;;;11.67;7.40;;;17.10;99.90;;;;;;5029676;28;20274;-73
2022/08/26 04:26:19;;;;;;;11.63;7.40;;;17.20;99.90;;;;;;5031146;28;20418;-74
2022/08/26 04:28:46;;;;;;;12.50;7.83;;;17.30;99.90;;;;;;5029213;28;20478;-74
2022/08/26 04:31:14;;;;;;;10.30;7.73;;;17.30;99.90;;;;;;5030911;28;20439;-72
2022/08/26 04:33:41;;;;;;;10.60;7.00;;;17.30;99.90;;;;;;5030154;28;20933;-73
2022/08/26 04:36:07;;;;;;;10.00;7.63;;;17.30;99.90;;;;;;5029236;28;20412;-73
2022/08/26 04:38:33;;;;;;;11.83;8.20;;;17.30;99.90;;;;;;5029297;28;20550;-74
2022/08/26 04:40:59;;;;;;;9.37;7.63;;;17.40;99.90;;;;;;5028374;28;20201;-74
2022/08/26 04:43:29;;;;;;;15.23;8.03;;;17.40;99.90;;;;;;5029896;28;20499;-73
2022/08/26 04:46:00;;;;;;;10.50;8.10;;;17.40;99.90;;;;;;5030163;28;20458;-73
2022/08/26 04:48:30;;;;;;;10.90;8.53;;;17.30;99.90;;;;;;5030014;28;20519;-73
2022/08/26 04:50:56;;;;;;;9.53;8.40;;;17.30;99.90;;;;;;5029005;28;20433;-73
2022/08/26 04:53:22;;;;;;;10.60;7.70;;;17.30;99.90;;;;;;5029872;28;20423;-74
2022/08/26 04:55:48;;;;;;;16.30;7.80;;;17.40;99.90;;;;;;5029765;28;20721;-73
2022/08/26 04:58:19;;;;;;;16.70;8.97;;;17.40;99.90;;;;;;5030272;28;20450;-73
2022/08/26 05:00:46;;;;;;;11.03;8.53;;;17.40;99.90;;;;;;5029884;28;20444;-74
2022/08/26 05:03:12;;;;;;;14.07;7.37;;;17.40;99.90;;;;;;5028267;28;20462;-73
2022/08/26 05:05:40;;;;;;;10.73;7.60;;;17.50;99.90;;;;;;5029257;28;20454;-72
2022/08/26 05:08:06;;;;;;;9.70;7.60;;;17.50;99.90;;;;;;5029125;28;20543;-73
2022/08/26 05:10:34;;;;;;;8.63;7.73;;;17.60;99.90;;;;;;5029163;28;20514;-73
2022/08/26 05:13:02;;;;;;;10.90;8.47;;;17.50;99.90;;;;;;5029269;28;20446;-73
2022/08/26 05:15:28;;;;;;;10.80;8.60;;;17.60;99.90;;;;;;5027865;28;20434;-73
2022/08/26 05:17:54;;;;;;;10.80;7.80;;;17.60;99.90;;;;;;5027877;28;20926;-73
2022/08/26 05:20:20;;;;;;;11.83;8.37;;;17.60;99.90;;;;;;5029267;28;20541;-73
2022/08/26 05:22:46;;;;;;;9.30;7.27;;;17.70;99.90;;;;;;5029146;28;20411;-73
2022/08/26 05:25:12;;;;;;;9.80;6.10;;;17.80;99.90;;;;;;5028854;28;20488;-73
2022/08/26 05:27:37;;;;;;;7.43;6.60;;;17.80;99.90;;;;;;5028533;28;20274;-74
2022/08/26 05:30:05;;;;;;;10.97;7.20;;;17.90;99.90;;;;;;5027253;28;20208;-73
2022/08/26 05:32:30;;;;;;;7.90;6.97;;;17.90;99.90;;;;;;5029140;28;20776;-72
2022/08/26 05:34:56;;;;;;;9.40;6.63;;;18.00;99.90;;;;;;5029027;28;20415;-73
2022/08/26 05:37:22;;;;;;;11.10;7.17;;;18.00;99.90;;;;;;5029254;28;20217;-73
2022/08/26 05:39:48;;;;;;;8.20;7.40;;;18.10;99.90;;;;;;5030445;28;20443;-73
2022/08/26 05:42:14;;;;;;;17.47;9.23;;;18.20;99.90;;;;;;5029420;28;20665;-74
2022/08/26 05:44:40;;;;;;;13.40;8.40;;;18.30;99.90;;;;;;5027680;28;20274;-75
2022/08/26 05:47:06;;;;;;;11.57;7.80;;;18.30;99.90;;;;;;5028949;28;20864;-73
2022/08/26 05:49:32;;;;;;;13.10;7.90;;;18.20;99.90;;;;;;5028907;28;20630;-74
2022/08/26 05:51:57;;;;;;;9.80;7.77;;;18.20;99.90;;;;;;5028330;28;20713;-72
2022/08/26 05:54:23;;;;;;;7.60;6.80;;;18.30;99.90;;;;;;5028203;28;20663;-74
2022/08/26 05:56:50;;;;;;;12.40;7.50;;;18.50;99.90;;;;;;5028664;28;20180;-73
2022/08/26 05:59:16;;;;;;;10.03;7.50;;;18.60;99.90;;;;;;5028809;28;20211;-73
2022/08/26 06:01:42;;;;;;;9.87;7.00;;;18.70;99.90;;;;;;5028967;28;20989;-73
2022/08/26 06:04:08;;;;;;;9.33;6.60;;;18.80;99.90;;;;;;5029234;28;20185;-72
2022/08/26 06:06:35;;;;;;;10.20;7.40;;;18.80;99.90;;;;;;5029117;28;20473;-74
2022/08/26 06:09:05;;;;;;;13.30;7.00;;;18.80;99.90;;;;;;5028695;28;21388;-72
2022/08/26 06:11:32;;;;;;;8.53;7.10;;;18.90;99.90;;;;;;5027236;28;20426;-72
2022/08/26 06:14:01;;;;;;;9.13;7.53;;;18.90;99.90;;;;;;5028529;28;20438;-73
2022/08/26 06:16:28;;;;;;;10.90;7.73;;;19.00;99.90;;;;;;5029712;28;20848;-72
2022/08/26 06:18:54;;;;;;;12.83;10.90;;;19.00;99.90;;;;;;5029599;28;20429;-72
2022/08/26 06:21:30;;;;;;;13.97;11.10;;;19.00;99.90;;;;;;5029373;28;20413;-72
2022/08/26 06:27:01;;;;;;;12.17;8.97;;;19.00;99.90;;;;;;5029277;28;20429;-73
2022/08/26 06:29:30;;;;;;;19.13;9.03;;;19.00;99.90;;;;;;5028567;28;20457;-72
2022/08/26 06:31:56;;;;;;;12.13;8.60;;;19.10;99.90;;;;;;5028403;28;21033;-72
2022/08/26 06:34:23;;;;;;;12.50;9.10;;;19.20;99.90;;;;;;5028417;28;20406;-72
2022/08/26 06:36:49;;;;;;;14.87;10.90;;;19.30;99.90;;;;;;5028384;28;20416;-72
2022/08/26 06:39:17;;;;;;;11.63;8.90;;;19.30;99.90;;;;;;5028273;28;20493;-72
2022/08/26 06:41:43;;;;;;;20.57;10.73;;;19.40;99.90;;;;;;5028141;28;20419;-72
2022/08/26 06:44:10;;;;;;;14.57;10.37;;;19.50;99.90;;;;;;5027826;28;20502;-73
2022/08/26 06:46:36;;;;;;;14.23;8.43;;;19.60;99.90;;;;;;5027603;28;20429;-72
2022/08/26 06:49:04;;;;;;;13.63;10.07;;;19.80;99.90;;;;;;5027448;28;20470;-73
2022/08/26 06:51:35;;;;;;;9.17;7.80;;;19.80;99.90;;;;;;5027803;28;20408;-73
2022/08/26 06:54:01;;;;;;;13.43;7.67;;;19.90;99.90;;;;;;5027771;28;20420;-73
2022/08/26 06:56:33;;;;;;;10.10;8.33;;;20.00;99.90;;;;;;5027642;28;20442;-74
2022/08/26 06:58:59;;;;;;;11.83;9.00;;;20.00;99.90;;;;;;5025800;28;20426;-74
2022/08/26 07:01:37;;;;;;;10.23;8.60;;;20.00;99.90;;;;;;5027435;28;20426;-73
2022/08/26 07:04:05;;;;;;;10.30;7.77;;;20.00;99.90;;;;;;5027166;28;20426;-73
2022/08/26 07:06:36;;;;;;;11.17;8.53;;;20.10;99.90;;;;;;5027123;28;20816;-73
2022/08/26 07:09:04;;;;;;;10.07;9.07;;;20.10;99.90;;;;;;5027527;28;20481;-73
2022/08/26 07:11:31;;;;;;;15.77;9.90;;;20.10;99.90;;;;;;5027497;28;20426;-73
2022/08/26 07:13:57;;;;;;;12.60;8.70;;;20.10;99.90;;;;;;5028571;28;20464;-74
2022/08/26 07:16:24;;;;;;;10.13;8.23;;;20.20;99.90;;;;;;5031544;28;20873;-74
2022/08/26 07:18:52;;;;;;;10.20;7.90;;;20.30;99.90;;;;;;5029878;28;20938;-73
2022/08/26 07:21:19;;;;;;;9.33;8.40;;;20.40;99.90;;;;;;5030998;28;20500;-73
2022/08/26 07:23:45;;;;;;;12.17;7.80;;;20.50;99.90;;;;;;5030822;28;20447;-74
2022/08/26 07:26:15;;;;;;;8.90;7.60;;;20.60;99.90;;;;;;5031220;28;21096;-73
2022/08/26 07:28:42;;;;;;;19.50;7.70;;;20.80;99.90;;;;;;5030902;28;20220;-73
2022/08/26 07:31:10;;;;;;;9.90;7.10;;;20.90;99.90;;;;;;5031078;28;20441;-74
2022/08/26 07:33:38;;;;;;;10.07;7.83;;;21.00;99.90;;;;;;5031922;28;20923;-73
2022/08/26 07:36:04;;;;;;;7.90;7.10;;;21.10;99.90;;;;;;5031757;28;20925;-74
2022/08/26 07:38:30;;;;;;;7.63;6.80;;;21.30;99.90;;;;;;5029618;28;20492;-73
2022/08/26 07:40:56;;;;;;;7.43;6.30;;;21.40;99.90;;;;;;5031068;28;20443;-73
2022/08/26 07:43:22;;;;;;;10.03;7.17;;;21.50;99.90;;;;;;5029804;28;20648;-74
2022/08/26 07:45:48;;;;;;;8.70;6.80;;;21.50;99.90;;;;;;5031263;28;20235;-73
2022/08/26 07:48:14;;;;;;;7.50;5.90;;;21.60;99.90;;;;;;5029767;28;20472;-73
2022/08/26 07:50:40;;;;;;;7.57;6.77;;;21.80;99.90;;;;;;5031145;28;20431;-73
2022/08/26 07:53:06;;;;;;;8.67;6.60;;;21.90;99.90;;;;;;5031121;28;20183;-73
2022/08/26 07:55:32;;;;;;;7.03;6.20;;;22.00;99.90;;;;;;5030982;28;20177;-73
2022/08/26 07:57:58;;;;;;;12.50;7.13;;;22.10;99.90;;;;;;5031199;28;20423;-73
2022/08/26 08:00:23;;;;;;;9.90;5.67;;;22.20;99.90;;;;;;5029625;28;21064;-74
2022/08/26 08:02:50;;;;;;;7.53;6.03;;;22.40;99.90;;;;;;5030825;28;20177;-73
2022/08/26 08:05:17;;;;;;;8.60;5.90;;;22.70;99.90;;;;;;5031213;28;20867;-74
2022/08/26 08:07:45;;;;;;;7.50;6.13;;;22.80;99.90;;;;;;5030657;28;20816;-73
2022/08/26 08:10:17;;;;;;;8.27;5.93;;;22.90;99.90;;;;;;5030461;28;20942;-73
2022/08/26 08:12:43;;;;;;;6.97;6.27;;;23.10;99.90;;;;;;5030345;28;20433;-73
2022/08/26 08:15:12;;;;;;;14.10;6.30;;;23.30;99.90;;;;;;5030596;28;20420;-72
2022/08/26 08:17:39;;;;;;;6.40;5.77;;;23.50;99.90;;;;;;5030569;28;20986;-73
2022/08/26 08:20:07;;;;;;;5.53;4.80;;;23.60;99.90;;;;;;5030294;28;20441;-75
2022/08/26 08:22:32;;;;;;;6.20;5.60;;;23.60;99.90;;;;;;5030229;28;20457;-73
2022/08/26 08:24:58;;;;;;;15.20;6.57;;;23.60;99.90;;;;;;5030093;28;20425;-74
2022/08/26 08:27:24;;;;;;;7.40;6.20;;;23.70;99.90;;;;;;5030035;28;20220;-74
2022/08/26 08:29:53;;;;;;;6.30;5.67;;;23.80;99.90;;;;;;5029944;28;20234;-75
2022/08/26 08:32:19;;;;;;;7.03;5.37;;;23.90;99.90;;;;;;5029892;28;20425;-74
2022/08/26 08:34:45;;;;;;;5.57;5.00;;;23.90;99.90;;;;;;5029771;28;20413;-74
2022/08/26 08:37:11;;;;;;;8.87;4.87;;;24.00;99.90;;;;;;5029527;28;20979;-73
2022/08/26 08:39:36;;;;;;;5.73;4.87;;;24.20;99.90;;;;;;5029726;28;20215;-73
2022/08/26 08:42:08;;;;;;;6.00;4.63;;;24.40;99.90;;;;;;5027813;28;20187;-74
2022/08/26 08:44:38;;;;;;;7.60;4.90;;;24.60;99.90;;;;;;5029494;28;20184;-74
2022/08/26 08:47:17;;;;;;;6.93;5.10;;;24.90;99.90;;;;;;5027716;28;20479;-73
2022/08/26 08:49:43;;;;;;;8.47;5.37;;;25.20;99.90;;;;;;5027512;28;20461;-74
2022/08/26 08:52:24;;;;;;;5.67;4.90;;;25.40;99.90;;;;;;5029196;28;20442;-74
2022/08/26 08:54:50;;;;;;;7.20;5.00;;;25.60;99.90;;;;;;5029295;28;20418;-74
2022/08/26 08:57:26;;;;;;;6.70;5.07;;;26.00;99.90;;;;;;5029172;28;21285;-74
2022/08/26 09:00:08;;;;;;;6.30;5.10;;;26.00;99.90;;;;;;5029348;28;20858;-74
2022/08/26 09:02:52;;;;;;;4.47;4.07;;;26.10;99.90;;;;;;5029205;28;20417;-74
2022/08/26 09:05:21;;;;;;;7.67;4.43;;;26.50;99.90;;;;;;5029393;28;20411;-74
2022/08/26 09:08:22;;;;;;;6.13;4.93;;;26.70;99.90;;;;;;5029033;28;20475;-73
2022/08/26 09:10:59;;;;;;;5.13;4.47;;;26.90;99.90;;;;;;5019998;28;20473;-75
2022/08/26 09:13:26;;;;;;;5.83;4.03;;;27.20;99.90;;;;;;5029138;28;20432;-75
2022/08/26 09:15:55;;;;;;;6.53;3.80;;;27.50;99.90;;;;;;5028047;28;20423;-75
2022/08/26 09:18:58;;;;;;;4.47;4.07;;;27.70;99.80;;;;;;5027838;28;21296;-75
2022/08/26 09:21:24;;;;;;;4.47;4.07;;;28.00;98.50;;;;;;5029347;28;20556;-76
2022/08/26 09:23:52;;;;;;;8.03;4.20;;;28.30;98.70;;;;;;5029396;28;20493;-75
2022/08/26 09:26:38;;;;;;;5.13;4.00;;;28.60;97.90;;;;;;5029176;28;20422;-73
2022/08/26 09:29:14;;;;;;;7.30;4.47;;;28.90;96.60;;;;;;5029430;28;20886;-75
2022/08/26 09:31:40;;;;;;;5.53;4.57;;;28.90;96.00;;;;;;5030512;28;20507;-75
2022/08/26 09:34:11;;;;;;;4.73;4.37;;;29.20;97.20;;;;;;5027845;28;20518;-74
2022/08/26 09:36:40;;;;;;;4.63;4.20;;;29.50;95.10;;;;;;5028654;28;20427;-74
2022/08/26 09:39:28;;;;;;;6.17;4.83;;;30.00;94.80;;;;;;5028143;28;20784;-74
2022/08/26 09:42:31;;;;;;;4.47;4.00;;;30.20;94.00;;;;;;5027558;28;20486;-76
2022/08/26 09:44:59;;;;;;;6.70;4.17;;;30.40;93.20;;;;;;5019818;28;20446;-75
2022/08/26 09:47:36;;;;;;;4.27;3.93;;;30.50;92.60;;;;;;5028836;28;20429;-75
2022/08/26 09:50:10;;;;;;;5.10;4.40;;;30.80;91.40;;;;;;5027138;28;20465;-76
2022/08/26 09:52:36;;;;;;;4.40;4.00;;;31.10;91.00;;;;;;5028866;28;20419;-76
2022/08/26 09:55:05;;;;;;;6.60;4.40;;;31.40;91.00;;;;;;5027231;28;20438;-75
2022/08/26 09:57:43;;;;;;;6.93;4.50;;;31.50;88.90;;;;;;5028814;28;20500;-75
2022/08/26 10:00:33;;;;;;;5.73;5.00;;;31.40;87.40;;;;;;5028797;28;20445;-75
2022/08/26 10:03:05;;;;;;;6.40;4.60;;;31.50;86.80;;;;;;5028840;28;20430;-74
2022/08/26 10:06:11;;;;;;;5.50;5.00;;;31.40;86.70;;;;;;5028629;28;20427;-76
2022/08/26 10:08:42;;;;;;;6.83;4.47;;;31.50;87.20;;;;;;5026430;28;20487;-76
2022/08/26 10:11:20;;;;;;;4.00;3.80;;;31.60;88.90;;;;;;5028781;28;20443;-72
2022/08/26 10:14:11;;;;;;;5.00;4.57;;;31.30;86.60;;;;;;5028472;28;20450;-73
2022/08/26 10:16:49;;;;;;;4.50;4.03;;;31.20;86.90;;;;;;5028435;28;20528;-75
2022/08/26 10:19:20;;;;;;;9.73;4.37;;;30.70;87.30;;;;;;5028459;28;20450;-72
2022/08/26 10:22:24;;;;;;;8.30;4.20;;;30.10;90.10;;;;;;5028357;28;20461;-72
2022/08/26 10:24:55;;;;;;;7.40;4.53;;;30.00;90.60;;;;;;4991197;28;20425;-74
2022/08/26 10:27:55;;;;;;;5.30;3.83;;;30.10;90.80;;;;;;5028273;28;20425;-74
2022/08/26 10:30:28;;;;;;;4.33;4.03;;;30.30;90.20;;;;;;5028088;28;20435;-73
2022/08/26 10:33:13;;;;;;;5.23;4.40;;;30.40;90.00;;;;;;5028052;28;20933;-75
2022/08/26 10:36:48;;;;;;;4.63;4.10;;;30.70;89.50;;;;;;5028046;28;20404;-77
2022/08/26 10:39:06;;;;;;;9.77;5.00;;;31.10;88.70;;;;;;5011605;28;20419;-74
2022/08/26 10:41:36;;;;;;;5.07;4.47;;;31.50;88.90;;;;;;5026485;28;20423;-78
2022/08/26 10:44:05;;;;;;;7.47;4.70;;;31.80;85.80;;;;;;5027782;28;20419;-77
2022/08/26 10:46:46;;;;;;;8.40;5.17;;;32.30;84.30;;;;;;5028300;28;20526;-78
2022/08/26 10:49:14;;;;;;;10.23;4.50;;;32.40;82.40;;;;;;5028099;28;20467;-76
2022/08/26 10:52:04;;;;;;;10.60;4.93;;;32.50;83.60;;;;;;5032222;28;20446;-75
2022/08/26 10:54:52;;;;;;;8.47;4.67;;;32.90;82.40;;;;;;5025962;28;20435;-74
2022/08/26 10:57:23;;;;;;;10.77;5.30;;;32.90;80.60;;;;;;5031788;28;20423;-75
2022/08/26 11:03:34;;;;;;;10.53;6.00;;;32.60;81.00;;;;;;5031623;28;20803;-77
2022/08/26 11:06:18;;;;;;;9.67;6.20;;;32.70;82.90;;;;;;5032112;28;20415;-77
2022/08/26 11:09:02;;;;;;;14.33;6.20;;;32.90;81.50;;;;;;5031778;28;20450;-76
2022/08/26 11:11:40;;;;;;;6.73;5.60;;;32.90;79.10;;;;;;5029958;28;20783;-76
2022/08/26 11:14:21;;;;;;;9.40;5.90;;;33.00;79.90;;;;;;5031423;28;20419;-76
2022/08/26 11:16:53;;;;;;;10.13;5.97;;;32.50;80.00;;;;;;5030138;28;20415;-75
2022/08/26 11:19:40;;;;;;;12.40;5.70;;;32.20;81.40;;;;;;5030481;28;20477;-77
2022/08/26 11:22:27;;;;;;;10.30;6.67;;;32.20;82.40;;;;;;5031276;28;20954;-77
2022/08/26 11:24:59;;;;;;;13.93;7.30;;;31.70;80.90;;;;;;5030970;28;20440;-75
2022/08/26 11:27:24;;;;;;;13.17;7.10;;;32.40;84.30;;;;;;5029268;28;21241;-77
2022/08/26 11:30:05;;;;;;;10.30;6.70;;;32.90;83.10;;;;;;5031659;28;20466;-75
2022/08/26 11:32:35;;;;;;;11.10;6.50;;;33.20;80.90;;;;;;5031444;28;20227;-76
2022/08/26 11:35:03;;;;;;;10.93;6.73;;;33.50;79.00;;;;;;5031244;28;20438;-76
2022/08/26 11:37:38;;;;;;;14.03;6.77;;;33.70;79.00;;;;;;5029457;28;20698;-75
2022/08/26 11:40:11;;;;;;;11.93;7.00;;;33.80;76.30;;;;;;5030615;28;20430;-75
2022/08/26 11:42:45;;;;;;;13.60;6.40;;;33.90;73.40;;;;;;5029220;28;20516;-75
2022/08/26 11:45:36;;;;;;;7.67;5.57;;;33.90;73.70;;;;;;5031038;28;20415;-74
2022/08/26 11:48:28;;;;;;;13.93;5.90;;;33.90;72.20;;;;;;5030326;28;20459;-76
2022/08/26 11:51:00;;;;;;;9.57;5.03;;;33.90;70.90;;;;;;5030044;28;20500;-74
2022/08/26 11:53:27;;;;;;;10.23;5.83;;;34.10;68.90;;;;;;5029992;28;20507;-74
2022/08/26 11:55:55;;;;;;;18.73;5.90;;;34.00;68.20;;;;;;5029994;28;20849;-75
2022/08/26 11:58:23;;;;;;;8.47;6.17;;;34.10;69.10;;;;;;5029869;28;20483;-75
2022/08/26 12:00:57;;;;;;;8.13;5.80;;;33.90;67.80;;;;;;5028253;28;20808;-75
2022/08/26 12:03:37;;;;;;;8.57;5.17;;;34.00;67.90;;;;;;5030053;28;20931;-75
2022/08/26 12:06:20;;;;;;;10.00;5.70;;;34.10;65.70;;;;;;5030056;28;20430;-74
2022/08/26 12:08:46;;;;;;;10.97;5.30;;;34.00;63.50;;;;;;5029968;28;20466;-75
2022/08/26 12:11:24;;;;;;;8.23;5.50;;;34.10;64.90;;;;;;5029811;28;20468;-74
2022/08/26 12:13:57;;;;;;;7.33;5.37;;;34.20;64.00;;;;;;5029055;28;20450;-74
2022/08/26 12:16:26;;;;;;;7.03;5.20;;;34.30;63.30;;;;;;5030682;28;20439;-74
2022/08/26 12:18:52;;;;;;;6.30;4.60;;;34.20;62.50;;;;;;5029265;28;20447;-74
2022/08/26 12:21:28;;;;;;;8.10;4.70;;;34.20;62.70;;;;;;5028993;28;20443;-75
2022/08/26 12:23:59;;;;;;;9.90;5.40;;;34.10;63.20;;;;;;5030376;28;20407;-74
2022/08/26 12:26:32;;;;;;;8.90;4.70;;;33.70;61.70;;;;;;5028688;28;20438;-74
2022/08/26 12:29:01;;;;;;;5.20;4.80;;;33.60;63.00;;;;;;5030070;28;20461;-75
2022/08/26 12:31:39;;;;;;;8.20;5.30;;;33.70;63.20;;;;;;5029818;28;21280;-75
2022/08/26 12:34:08;;;;;;;7.90;5.53;;;33.60;62.90;;;;;;5029742;28;20419;-74
2022/08/26 12:36:41;;;;;;;10.67;5.90;;;33.60;62.20;;;;;;5029695;28;20848;-74
2022/08/26 12:39:08;;;;;;;14.93;5.50;;;33.70;63.40;;;;;;5028539;28;20435;-75
2022/08/26 12:41:39;;;;;;;11.53;5.20;;;33.70;61.90;;;;;;5029820;28;20415;-75
2022/08/26 12:44:05;;;;;;;10.60;6.00;;;33.70;63.20;;;;;;5029870;28;20502;-75
2022/08/26 12:46:31;;;;;;;9.47;4.50;;;34.00;63.10;;;;;;5029629;28;20926;-75
2022/08/26 12:49:00;;;;;;;7.67;5.20;;;34.20;60.20;;;;;;5029136;28;20212;-75
2022/08/26 12:51:31;;;;;;;6.40;4.20;;;34.30;60.70;;;;;;5029078;28;20183;-75
2022/08/26 12:53:57;;;;;;;5.30;4.60;;;34.30;55.60;;;;;;5029497;28;21239;-75
2022/08/26 12:56:23;;;;;;;5.90;3.90;;;34.20;57.70;;;;;;5027692;28;20904;-74
2022/08/26 12:59:06;;;;;;;5.37;4.87;;;34.10;58.50;;;;;;5027595;28;20431;-75
2022/08/26 13:01:42;;;;;;;4.30;3.90;;;34.10;56.40;;;;;;5029670;28;20222;-76
2022/08/26 13:04:30;;;;;;;5.33;4.10;;;34.00;57.50;;;;;;5031096;28;20920;-75
2022/08/26 13:07:23;;;;;;;9.50;4.70;;;34.10;58.20;;;;;;5029811;28;20454;-74
2022/08/26 13:09:57;;;;;;;7.90;5.00;;;34.30;58.90;;;;;;5029621;28;20834;-75